Time;durP1;ratioP1;P1;durP2;ratioP2;P2;SDS_P1;SDS_P2;PMS_P1;PMS_P2;Temp;Humidity;BMP_temperature;BMP_pressure;BME280_temperature;BME280_humidity;BME280_pressure;Samples;Min_cycle;Max_cycle;Signal;HPM_P1;HPM_P2
2021/06/10 00:00:16;;;;;;;8.20;4.77;;;;;;;18.01;48.71;100246.53;126785;1090;101681;-81
2021/06/10 00:03:20;;;;;;;6.63;3.97;;;;;;;18.04;48.65;100250.77;126644;1090;114267;-81
2021/06/10 00:06:08;;;;;;;9.13;6.07;;;;;;;18.06;49.06;100254.16;126801;1090;102935;-81
2021/06/10 00:08:57;;;;;;;7.40;4.60;;;;;;;18.07;48.63;100246.14;126702;1090;114187;-81
2021/06/10 00:11:46;;;;;;;5.87;4.33;;;;;;;18.06;48.39;100249.72;126693;1090;102786;-81
2021/06/10 00:14:34;;;;;;;4.50;3.60;;;;;;;18.07;48.63;100240.86;126629;1090;113424;-81
2021/06/10 00:17:22;;;;;;;7.30;3.50;;;;;;;18.06;48.62;100239.17;126785;1089;103023;-81
2021/06/10 00:20:16;;;;;;;6.47;3.23;;;;;;;18.06;48.66;100244.45;126654;1090;113028;-81
2021/06/10 00:23:07;;;;;;;3.70;3.10;;;;;;;18.06;48.48;100255.00;126751;1089;102893;-81
2021/06/10 00:25:56;;;;;;;3.47;3.10;;;;;;;18.03;48.44;100247.28;126763;1090;102917;-80
2021/06/10 00:28:44;;;;;;;5.03;3.07;;;;;;;18.04;48.42;100248.98;126642;1090;113979;-80
2021/06/10 00:31:33;;;;;;;4.27;3.53;;;;;;;18.03;48.43;100252.56;126733;1089;102911;-81
2021/06/10 00:34:20;;;;;;;3.37;2.70;;;;;;;18.00;48.53;100250.13;126635;1090;114132;-81
2021/06/10 00:37:11;;;;;;;3.43;2.93;;;;;;;17.99;48.60;100251.06;126801;1090;103093;-81
2021/06/10 00:40:01;;;;;;;3.57;2.80;;;;;;;17.97;48.67;100255.59;126680;1090;114336;-81
2021/06/10 00:42:49;;;;;;;4.63;3.60;;;;;;;17.96;48.65;100253.91;126695;1090;102975;-81
2021/06/10 00:45:36;;;;;;;5.40;3.13;;;;;;;17.93;48.71;100261.98;126611;1090;114120;-80
2021/06/10 00:48:24;;;;;;;5.60;3.93;;;;;;;17.89;48.83;100252.56;126741;1088;102863;-80
2021/06/10 00:51:12;;;;;;;4.10;3.40;;;;;;;17.87;48.88;100251.82;126644;1089;114109;-81
2021/06/10 00:54:00;;;;;;;;;;;;;;;17.84;48.88;100246.73;126800;1089;102711;-80
2021/06/10 00:56:50;;;;;;;3.85;3.45;;;;;;;17.79;48.95;100246.19;126841;1090;103013;-80
2021/06/10 00:59:39;;;;;;;3.77;3.17;;;;;;;17.78;49.11;100241.86;126805;1090;103002;-81
2021/06/10 01:02:27;;;;;;;5.97;3.30;;;;;;;17.78;49.10;100244.49;126702;1090;114351;-81
2021/06/10 01:05:15;;;;;;;4.40;3.33;;;;;;;17.77;49.23;100243.64;126728;1089;102872;-80
2021/06/10 01:08:23;;;;;;;7.17;4.33;;;;;;;17.76;49.24;100246.34;126812;1090;102894;-81
2021/06/10 01:11:49;;;;;;;6.53;4.93;;;;;;;17.76;49.20;100246.34;126833;1090;102912;-81
2021/06/10 01:14:58;;;;;;;5.33;3.93;;;;;;;17.77;49.33;100245.41;126776;1090;102939;-81
2021/06/10 01:17:48;;;;;;;6.50;3.83;;;;;;;17.77;49.44;100245.41;126769;1090;102975;-81
2021/06/10 01:20:38;;;;;;;6.67;4.77;;;;;;;17.74;49.59;100249.09;126878;1089;102917;-81
2021/06/10 01:23:46;;;;;;;6.55;4.25;;;;;;;17.71;49.73;100245.80;126705;1090;114124;-80
2021/06/10 01:26:43;;;;;;;4.00;3.60;;;;;;;17.68;49.65;100251.27;126818;1089;102969;-80
2021/06/10 01:29:31;;;;;;;6.97;5.50;;;;;;;17.66;49.92;100253.12;126615;1089;114406;-80
2021/06/10 01:32:20;;;;;;;4.47;3.67;;;;;;;17.63;49.90;100250.67;126782;1090;102885;-80
2021/06/10 01:35:16;;;;;;;5.80;4.40;;;;;;;17.58;49.93;100250.09;126669;1089;114249;-80
2021/06/10 01:38:07;;;;;;;4.90;3.70;;;;;;;17.52;50.09;100254.80;126724;1090;102712;-81
2021/06/10 01:40:56;;;;;;;5.90;4.40;;;;;;;17.47;50.22;100251.60;126699;1090;114341;-80
2021/06/10 01:43:45;;;;;;;7.30;4.00;;;;;;;17.48;50.42;100249.81;126809;1088;102849;-80
2021/06/10 01:46:35;;;;;;;6.07;4.33;;;;;;;17.44;50.51;100246.52;126734;1090;113331;-80
2021/06/10 01:49:25;;;;;;;5.17;4.10;;;;;;;17.39;50.63;100251.20;127003;1089;103036;-80
2021/06/10 01:52:14;;;;;;;6.70;5.17;;;;;;;17.33;50.82;100248.09;126701;1090;114465;-80
2021/06/10 01:55:07;;;;;;;6.90;4.80;;;;;;;17.24;50.94;100249.51;126767;1090;103414;-80
2021/06/10 01:57:58;;;;;;;6.67;4.40;;;;;;;17.14;51.62;100248.34;126697;1090;114213;-82
2021/06/10 02:00:48;;;;;;;9.83;5.00;;;;;;;17.05;51.40;100248.88;126727;1090;100544;-82
2021/06/10 02:03:37;;;;;;;6.50;4.60;;;;;;;16.97;51.57;100245.85;126589;1090;113219;-80
2021/06/10 02:06:28;;;;;;;5.27;4.40;;;;;;;16.88;51.71;100248.09;126776;1090;103310;-81
2021/06/10 02:09:16;;;;;;;5.73;4.47;;;;;;;16.79;51.87;100239.86;126837;1089;103096;-81
2021/06/10 02:12:06;;;;;;;5.10;4.00;;;;;;;16.69;52.15;100234.27;126762;1090;101756;-81
2021/06/10 02:14:54;;;;;;;6.07;4.10;;;;;;;16.60;52.31;100238.25;126796;1089;102846;-81
2021/06/10 02:17:43;;;;;;;4.47;3.73;;;;;;;16.50;52.72;100241.48;126678;1088;114462;-81
2021/06/10 02:20:32;;;;;;;6.07;4.43;;;;;;;16.42;52.84;100244.56;126899;1090;102962;-81
2021/06/10 02:23:20;;;;;;;5.77;4.23;;;;;;;16.37;52.91;100243.14;126701;1090;113196;-81
2021/06/10 02:26:09;;;;;;;8.10;5.77;;;;;;;16.29;53.27;100241.77;126827;1090;102889;-81
2021/06/10 02:28:58;;;;;;;5.23;4.17;;;;;;;16.24;53.16;100249.07;126649;1090;114226;-81
2021/06/10 02:31:46;;;;;;;7.17;4.47;;;;;;;16.19;53.30;100247.64;126716;1090;102942;-81
2021/06/10 02:34:36;;;;;;;5.70;4.60;;;;;;;16.14;53.71;100245.23;126649;1089;114297;-81
2021/06/10 02:37:26;;;;;;;6.97;4.47;;;;;;;16.11;53.58;100247.20;126767;1090;101813;-81
2021/06/10 02:40:20;;;;;;;6.35;4.90;;;;;;;16.07;53.83;100243.89;126628;1088;114607;-81
2021/06/10 02:43:09;;;;;;;7.40;4.40;;;;;;;16.01;53.92;100249.50;126762;1089;104043;-81
2021/06/10 02:46:00;;;;;;;4.77;4.27;;;;;;;15.95;53.99;100249.81;126729;1090;113554;-81
2021/06/10 02:48:48;;;;;;;5.73;4.10;;;;;;;15.90;54.28;100250.06;126735;1089;102910;-81
2021/06/10 02:51:38;;;;;;;5.53;4.43;;;;;;;15.85;54.47;100253.89;126705;1090;103023;-81
2021/06/10 02:54:27;;;;;;;7.73;5.90;;;;;;;15.80;54.40;100248.00;126786;1090;102871;-81
2021/06/10 02:57:19;;;;;;;6.10;4.77;;;;;;;15.79;54.75;100254.19;126796;1090;102921;-81
2021/06/10 03:00:08;;;;;;;5.20;4.70;;;;;;;15.79;54.87;100254.19;126629;1090;114282;-81
2021/06/10 03:02:57;;;;;;;8.10;4.70;;;;;;;15.82;55.00;100269.84;126780;1090;102941;-81
2021/06/10 03:05:47;;;;;;;5.33;4.63;;;;;;;15.85;54.77;100259.99;126619;1090;113126;-81
2021/06/10 03:08:37;;;;;;;6.43;4.97;;;;;;;15.88;54.53;100265.08;126752;1089;103002;-80
2021/06/10 03:11:26;;;;;;;5.97;4.50;;;;;;;15.93;54.83;100263.05;126771;1088;113517;-81
2021/06/10 03:14:17;;;;;;;6.97;4.43;;;;;;;15.94;54.82;100262.11;126735;1089;102975;-80
2021/06/10 03:17:08;;;;;;;7.87;5.47;;;;;;;15.97;54.94;100266.35;126790;1090;114250;-81
2021/06/10 03:19:57;;;;;;;6.17;5.00;;;;;;;15.96;54.75;100267.28;126788;1090;102910;-80
2021/06/10 03:22:45;;;;;;;7.77;5.60;;;;;;;15.90;55.04;100272.89;126685;1090;114282;-81
2021/06/10 03:25:34;;;;;;;7.75;5.40;;;;;;;15.89;55.04;100263.30;126732;1090;102994;-82
2021/06/10 03:28:25;;;;;;;6.70;5.27;;;;;;;15.88;55.22;100264.23;126611;1090;114433;-80
2021/06/10 03:31:14;;;;;;;6.80;5.17;;;;;;;15.86;55.16;100266.10;126714;1090;102644;-81
2021/06/10 03:34:04;;;;;;;7.33;5.50;;;;;;;15.84;55.50;100270.59;126764;1088;102931;-81
2021/06/10 03:37:00;;;;;;;7.77;5.87;;;;;;;15.85;55.46;100273.14;126773;1090;101327;-80
2021/06/10 03:39:50;;;;;;;9.17;6.90;;;;;;;15.89;55.54;100271.19;126890;1089;102844;-80
2021/06/10 03:42:39;;;;;;;8.67;6.23;;;;;;;15.93;55.73;100278.83;126596;1089;114411;-81
2021/06/10 03:45:28;;;;;;;9.77;7.60;;;;;;;15.99;55.81;100273.26;126819;1090;102965;-80
2021/06/10 03:48:18;;;;;;;7.07;5.67;;;;;;;15.98;55.67;100275.98;126678;1090;114435;-81
2021/06/10 03:51:13;;;;;;;9.30;5.93;;;;;;;15.96;55.75;100277.81;126824;1090;101081;-80
2021/06/10 03:54:01;;;;;;;7.57;5.73;;;;;;;15.98;56.02;100286.50;126650;1089;114285;-80
2021/06/10 03:56:49;;;;;;;7.80;5.97;;;;;;;15.97;56.01;100288.25;126766;1089;102853;-81
2021/06/10 03:59:37;;;;;;;10.90;6.50;;;;;;;16.01;56.22;100286.33;126588;1089;114250;-81
2021/06/10 04:02:25;;;;;;;8.20;5.80;;;;;;;16.03;55.96;100288.88;126629;1090;102857;-81
2021/06/10 04:05:13;;;;;;;8.10;5.70;;;;;;;16.03;56.12;100289.72;126664;1090;114731;-81
2021/06/10 04:08:01;;;;;;;10.10;8.27;;;;;;;16.06;56.05;100284.29;126927;1089;102863;-81
2021/06/10 04:10:50;;;;;;;7.27;6.13;;;;;;;16.13;56.19;100284.80;126587;1090;114587;-81
2021/06/10 04:13:38;;;;;;;6.33;5.73;;;;;;;16.19;56.20;100285.33;126691;1088;102869;-81
2021/06/10 04:16:26;;;;;;;9.13;6.80;;;;;;;16.23;56.37;100289.48;126774;1090;102951;-81
2021/06/10 04:19:15;;;;;;;7.63;6.23;;;;;;;16.31;56.51;100284.63;126686;1089;113991;-81
2021/06/10 04:22:03;;;;;;;8.33;6.33;;;;;;;16.32;56.40;100286.33;126730;1090;102953;-81
2021/06/10 04:24:51;;;;;;;6.70;5.93;;;;;;;16.38;56.49;100279.90;126821;1090;114763;-81
2021/06/10 04:27:40;;;;;;;10.27;7.20;;;;;;;16.44;56.42;100273.44;126877;1090;102834;-81
2021/06/10 04:30:28;;;;;;;7.20;6.47;;;;;;;16.51;56.39;100286.16;126752;1090;114591;-81
2021/06/10 04:33:17;;;;;;;8.20;5.90;;;;;;;16.53;56.48;100283.47;126828;1090;102961;-80
2021/06/10 04:36:05;;;;;;;9.37;7.67;;;;;;;16.59;56.52;100278.69;126684;1089;113026;-80
2021/06/10 04:38:54;;;;;;;9.37;7.20;;;;;;;16.60;56.43;100280.39;126807;1090;102854;-80
2021/06/10 04:41:44;;;;;;;7.10;6.15;;;;;;;16.66;56.59;100279.18;126712;1089;114101;-80
2021/06/10 04:44:32;;;;;;;9.93;6.53;;;;;;;16.73;56.41;100280.58;126729;1090;102883;-81
2021/06/10 04:47:21;;;;;;;9.30;6.73;;;;;;;16.83;56.48;100286.16;126623;1089;114225;-82
2021/06/10 04:50:12;;;;;;;10.00;7.73;;;;;;;16.93;56.67;100286.49;126898;1089;102947;-82
2021/06/10 04:53:01;;;;;;;9.63;6.43;;;;;;;17.03;56.38;100285.00;126683;1090;113346;-81
2021/06/10 04:55:50;;;;;;;8.70;6.07;;;;;;;17.13;56.35;100280.91;126753;1090;102948;-81
2021/06/10 04:58:39;;;;;;;8.13;6.80;;;;;;;17.18;55.93;100286.75;126724;1090;102858;-81
2021/06/10 05:01:27;;;;;;;15.30;10.90;;;;;;;17.27;56.05;100288.86;126779;1090;114071;-81
2021/06/10 05:04:16;;;;;;;13.70;9.70;;;;;;;17.38;55.93;100293.48;126729;1089;102947;-81
2021/06/10 05:07:05;;;;;;;10.97;7.90;;;;;;;17.50;55.96;100300.66;126630;1089;115027;-80
2021/06/10 05:09:54;;;;;;;7.50;5.90;;;;;;;17.65;55.76;100296.27;126649;1090;102941;-81
2021/06/10 05:12:42;;;;;;;7.30;5.90;;;;;;;17.80;55.62;100295.37;126695;1090;115000;-81
2021/06/10 05:15:31;;;;;;;9.80;5.77;;;;;;;17.93;55.54;100301.56;126822;1090;102910;-81
2021/06/10 05:18:19;;;;;;;7.90;5.77;;;;;;;18.10;55.36;100290.81;126659;1089;114523;-81
2021/06/10 05:21:07;;;;;;;9.27;5.90;;;;;;;18.27;54.92;100291.55;126713;1090;102850;-81
2021/06/10 05:23:57;;;;;;;7.27;5.70;;;;;;;18.47;55.07;100293.76;126680;1090;114349;-81
2021/06/10 05:26:46;;;;;;;8.53;5.00;;;;;;;18.71;54.66;100289.59;126835;1090;102838;-82
2021/06/10 05:29:36;;;;;;;6.90;5.50;;;;;;;18.98;54.34;100278.14;126684;1090;113978;-81
2021/06/10 05:32:24;;;;;;;7.77;5.60;;;;;;;19.29;53.79;100284.87;126728;1089;102317;-81
2021/06/10 05:35:13;;;;;;;;;;;;;;;19.61;53.53;100274.77;126671;1089;114612;-82
2021/06/10 05:38:05;;;;;;;9.27;5.33;;;;;;;19.95;52.80;100278.56;127007;1090;102856;-81
2021/06/10 05:40:54;;;;;;;8.50;5.63;;;;;;;20.29;52.33;100276.13;126839;1089;102804;-83
2021/06/10 05:43:44;;;;;;;10.30;7.50;;;;;;;20.62;51.29;100276.38;126733;1090;114195;-81
2021/06/10 05:46:39;;;;;;;9.87;6.73;;;;;;;21.02;50.74;100276.94;126827;1090;102997;-82
2021/06/10 05:49:28;;;;;;;10.33;7.63;;;;;;;21.43;49.97;100282.73;126760;1090;113306;-82
2021/06/10 05:52:18;;;;;;;7.17;5.37;;;;;;;21.95;49.23;100279.53;126826;1090;102872;-82
2021/06/10 05:55:19;;;;;;;6.40;5.00;;;;;;;22.76;48.46;100278.31;126644;1090;114396;-82
2021/06/10 05:58:07;;;;;;;5.50;4.63;;;;;;;24.58;46.20;100272.34;126878;1089;102961;-82
2021/06/10 06:00:55;;;;;;;13.47;6.40;;;;;;;26.93;43.66;100255.29;126680;1088;114738;-81
2021/06/10 06:03:44;;;;;;;9.70;7.30;;;;;;;29.26;40.10;100259.28;126718;1088;103252;-81
2021/06/10 06:06:33;;;;;;;9.10;5.27;;;;;;;31.25;36.83;100251.66;126673;1090;114223;-82
2021/06/10 06:09:21;;;;;;;5.70;4.00;;;;;;;33.12;34.48;100247.55;126745;1090;102858;-81
2021/06/10 06:12:11;;;;;;;5.67;3.90;;;;;;;34.74;32.17;100249.65;126687;1088;113360;-81
2021/06/10 06:15:02;;;;;;;7.90;4.77;;;;;;;36.03;29.79;100243.71;126817;1090;102935;-81
2021/06/10 06:17:52;;;;;;;4.20;3.17;;;;;;;37.12;27.95;100246.19;126674;1090;114414;-81
2021/06/10 06:20:40;;;;;;;3.40;3.10;;;;;;;38.20;26.47;100245.72;126778;1090;104011;-81
2021/06/10 06:23:30;;;;;;;6.73;3.07;;;;;;;38.93;24.94;100237.30;126656;1090;113381;-81
2021/06/10 06:26:20;;;;;;;7.23;3.10;;;;;;;39.18;23.40;100231.67;126732;1090;102942;-81
2021/06/10 06:29:08;;;;;;;7.80;3.30;;;;;;;39.20;22.40;100239.63;126795;1089;102946;-81
2021/06/10 06:31:58;;;;;;;3.40;2.90;;;;;;;39.10;22.19;100242.92;126690;1090;113549;-81
2021/06/10 06:34:46;;;;;;;5.33;2.77;;;;;;;39.56;22.04;100233.10;126759;1090;102868;-81
2021/06/10 06:37:34;;;;;;;3.07;2.77;;;;;;;40.39;21.35;100249.03;126653;1089;113236;-82
2021/06/10 06:40:26;;;;;;;5.10;2.97;;;;;;;40.94;20.30;100240.20;126762;1090;101792;-81
2021/06/10 06:43:15;;;;;;;6.33;3.40;;;;;;;41.21;19.68;100240.34;126684;1090;114379;-81
2021/06/10 06:46:06;;;;;;;4.70;2.50;;;;;;;41.52;18.87;100240.81;126758;1088;102967;-81
2021/06/10 06:48:55;;;;;;;3.57;2.90;;;;;;;41.89;18.87;100235.58;126754;1090;114101;-81
2021/06/10 06:51:42;;;;;;;8.60;2.83;;;;;;;42.35;18.33;100244.32;126713;1089;102997;-81
2021/06/10 06:54:41;;;;;;;5.23;2.30;;;;;;;42.72;18.50;100241.69;126692;1090;113284;-82
2021/06/10 06:57:29;;;;;;;4.93;2.63;;;;;;;43.03;17.42;100229.90;126773;1090;102924;-81
2021/06/10 07:00:21;;;;;;;4.93;3.07;;;;;;;42.87;16.95;100244.56;126707;1090;115279;-81
2021/06/10 07:03:09;;;;;;;3.73;2.37;;;;;;;42.71;16.99;100238.11;126715;1090;101778;-81
2021/06/10 07:05:57;;;;;;;2.70;2.40;;;;;;;42.80;16.91;100238.48;126621;1090;113404;-81
2021/06/10 07:08:45;;;;;;;5.93;2.13;;;;;;;42.79;16.56;100243.14;126766;1090;103067;-81
2021/06/10 07:11:35;;;;;;;2.97;2.30;;;;;;;42.87;16.77;100233.58;126879;1088;101783;-81
2021/06/10 07:14:23;;;;;;;2.50;2.20;;;;;;;43.15;16.30;100229.72;126804;1090;102693;-81
2021/06/10 07:17:12;;;;;;;4.57;1.90;;;;;;;43.42;16.22;100226.88;126848;1090;102848;-82
2021/06/10 07:20:01;;;;;;;3.47;2.67;;;;;;;43.56;15.88;100227.23;126705;1090;114083;-81
2021/06/10 07:22:50;;;;;;;2.45;2.00;;;;;;;43.54;15.32;100230.24;126810;1089;102896;-82
2021/06/10 07:25:37;;;;;;;4.57;3.00;;;;;;;43.45;15.62;100231.83;126904;1090;114367;-81
2021/06/10 07:28:25;;;;;;;3.47;2.50;;;;;;;43.16;15.49;100236.03;126821;1090;101551;-81
2021/06/10 07:31:13;;;;;;;2.97;2.10;;;;;;;43.15;15.39;100240.70;126812;1090;114386;-80
2021/06/10 07:34:05;;;;;;;2.80;2.20;;;;;;;43.47;15.35;100237.91;127000;1089;102892;-81
2021/06/10 07:36:52;;;;;;;2.67;1.70;;;;;;;43.67;15.26;100245.41;126777;1090;114212;-80
2021/06/10 07:39:40;;;;;;;2.40;2.20;;;;;;;43.93;15.20;100238.13;126838;1088;102866;-80
2021/06/10 07:42:28;;;;;;;6.70;3.00;;;;;;;44.07;15.09;100236.52;126652;1090;113713;-80
2021/06/10 07:45:17;;;;;;;3.47;2.20;;;;;;;43.83;14.99;100232.61;126773;1090;102915;-81
2021/06/10 07:48:06;;;;;;;2.33;2.13;;;;;;;43.90;14.94;100230.42;126601;1090;114471;-80
2021/06/10 07:50:54;;;;;;;4.10;1.50;;;;;;;43.94;14.82;100224.11;126819;1090;102969;-81
2021/06/10 07:53:42;;;;;;;3.63;1.80;;;;;;;43.48;14.39;100236.81;126784;1090;102967;-80
2021/06/10 07:56:30;;;;;;;3.77;2.50;;;;;;;43.36;14.66;100238.93;126704;1090;112927;-80
2021/06/10 07:59:23;;;;;;;3.60;2.80;;;;;;;43.28;14.70;100236.67;126884;1089;102858;-80
2021/06/10 08:02:11;;;;;;;3.57;2.80;;;;;;;42.98;15.09;100245.51;126777;1090;114334;-80
2021/06/10 08:05:00;;;;;;;4.13;2.10;;;;;;;42.83;15.00;100241.52;126849;1090;102872;-80
2021/06/10 08:07:49;;;;;;;3.13;2.40;;;;;;;42.44;15.25;100240.87;126717;1089;114261;-80
2021/06/10 08:10:38;;;;;;;2.00;1.40;;;;;;;41.98;14.78;100238.67;126843;1090;102760;-80
2021/06/10 08:13:27;;;;;;;4.17;2.70;;;;;;;42.08;15.07;100242.41;126840;1090;115530;-80
2021/06/10 08:16:15;;;;;;;3.60;1.83;;;;;;;42.17;15.54;100242.76;126826;1090;101724;-80
2021/06/10 08:19:04;;;;;;;5.30;2.80;;;;;;;42.25;14.92;100247.80;126771;1090;113461;-81
2021/06/10 08:21:52;;;;;;;4.70;2.33;;;;;;;42.10;15.26;100237.49;126788;1090;102971;-81
2021/06/10 08:24:45;;;;;;;3.50;1.97;;;;;;;41.76;14.98;100241.43;126610;1089;113193;-81
2021/06/10 08:27:36;;;;;;;2.53;1.70;;;;;;;41.46;14.79;100244.55;126815;1090;102985;-81
2021/06/10 08:30:32;;;;;;;4.70;2.70;;;;;;;41.28;15.10;100246.48;126682;1090;114298;-81
2021/06/10 08:33:20;;;;;;;4.00;2.30;;;;;;;40.97;15.29;100238.88;126857;1090;100778;-81
2021/06/10 08:36:08;;;;;;;3.47;2.70;;;;;;;40.90;15.34;100244.49;126796;1090;102843;-80
2021/06/10 08:38:57;;;;;;;4.63;1.83;;;;;;;40.88;15.45;100234.89;126840;1088;102827;-81
2021/06/10 08:41:46;;;;;;;3.77;2.90;;;;;;;40.81;15.38;100231.47;126815;1089;103026;-81
2021/06/10 08:44:35;;;;;;;2.50;1.80;;;;;;;40.51;15.53;100235.32;126716;1090;114129;-81
2021/06/10 08:47:27;;;;;;;2.53;2.23;;;;;;;40.18;15.15;100228.67;126942;1089;102859;-81
2021/06/10 08:50:33;;;;;;;2.00;1.80;;;;;;;40.03;15.48;100239.30;126703;1090;113099;-81
2021/06/10 08:53:47;;;;;;;5.87;3.03;;;;;;;39.88;15.75;100233.52;126764;1090;102699;-80
2021/06/10 08:57:01;;;;;;;4.17;2.70;;;;;;;39.73;16.05;100234.02;126787;1090;113013;-81
2021/06/10 08:59:49;;;;;;;2.57;2.20;;;;;;;39.76;15.82;100239.00;126794;1090;103370;-81
2021/06/10 09:02:38;;;;;;;3.50;2.27;;;;;;;39.54;15.47;100241.53;126812;1090;114007;-82
2021/06/10 09:05:27;;;;;;;3.03;2.10;;;;;;;39.38;15.86;100247.69;126834;1088;102884;-82
2021/06/10 09:08:21;;;;;;;2.20;1.87;;;;;;;39.39;15.71;100238.43;126711;1090;114358;-82
2021/06/10 09:11:14;;;;;;;3.03;2.67;;;;;;;39.44;15.61;100233.08;126759;1089;101014;-82
2021/06/10 09:14:09;;;;;;;4.90;2.13;;;;;;;39.33;15.72;100233.94;126683;1088;113044;-81
2021/06/10 09:17:35;;;;;;;2.70;1.93;;;;;;;39.30;15.58;100242.57;126889;1090;102916;-81
2021/06/10 09:20:45;;;;;;;3.13;2.53;;;;;;;39.37;15.85;100234.28;126674;1090;114740;-82
2021/06/10 09:23:33;;;;;;;4.47;3.20;;;;;;;39.25;15.85;100237.00;126808;1089;103010;-81
2021/06/10 09:26:42;;;;;;;3.63;2.83;;;;;;;39.19;15.49;100238.80;126729;1088;113174;-81
2021/06/10 09:29:51;;;;;;;3.87;2.87;;;;;;;39.00;15.58;100218.13;126669;1089;102853;-81
2021/06/10 09:32:46;;;;;;;2.50;2.10;;;;;;;38.99;15.56;100238.28;126629;1089;114641;-81
2021/06/10 09:35:37;;;;;;;3.90;2.20;;;;;;;38.95;15.87;100226.16;126681;1090;103061;-82
2021/06/10 09:38:25;;;;;;;3.73;2.90;;;;;;;39.09;16.22;100238.54;126493;1090;114628;-82
2021/06/10 09:41:12;;;;;;;4.40;2.47;;;;;;;39.13;15.93;100234.27;126641;1089;103186;-81
2021/06/10 09:44:00;;;;;;;1.40;1.30;;;;;;;39.15;16.14;100226.70;126534;1090;114102;-81
2021/06/10 09:47:03;;;;;;;4.00;2.20;;;;;;;38.79;16.13;100226.88;126703;1090;102860;-81
2021/06/10 09:49:51;;;;;;;2.37;1.83;;;;;;;38.29;16.52;100238.06;126604;1089;113404;-82
2021/06/10 09:53:00;;;;;;;3.70;2.43;;;;;;;38.25;16.84;100236.88;126657;1090;102941;-82
2021/06/10 09:55:52;;;;;;;2.93;2.00;;;;;;;38.07;16.90;100235.81;126584;1090;114228;-82
2021/06/10 09:59:04;;;;;;;3.43;2.20;;;;;;;37.82;16.41;100242.41;126773;1088;102874;-81
2021/06/10 10:02:14;;;;;;;2.97;2.37;;;;;;;37.49;17.23;100238.13;126800;1089;114094;-81
2021/06/10 10:05:06;;;;;;;5.57;4.00;;;;;;;37.26;16.82;100246.94;126791;1088;102946;-81
2021/06/10 10:07:55;;;;;;;3.40;1.73;;;;;;;37.07;17.47;100235.16;126603;1090;114419;-81
2021/06/10 10:10:44;;;;;;;2.93;2.00;;;;;;;36.72;17.77;100247.53;126780;1090;102995;-81
2021/06/10 10:13:32;;;;;;;5.70;3.80;;;;;;;36.18;17.09;100236.13;126669;1090;114159;-82
2021/06/10 10:16:41;;;;;;;3.73;2.40;;;;;;;35.13;17.64;100237.19;126830;1090;101152;-81
2021/06/10 10:19:28;;;;;;;6.03;4.60;;;;;;;34.30;18.38;100246.62;126765;1088;114284;-81
2021/06/10 10:22:17;;;;;;;3.23;2.00;;;;;;;34.17;19.40;100237.41;126736;1090;102852;-82
2021/06/10 10:25:06;;;;;;;3.57;2.30;;;;;;;34.19;19.54;100243.45;126651;1088;113220;-83
2021/06/10 10:27:54;;;;;;;3.97;1.63;;;;;;;34.41;19.77;100243.33;126709;1090;103402;-81
2021/06/10 10:30:46;;;;;;;7.30;3.60;;;;;;;34.29;19.43;100239.50;126654;1088;114284;-81
2021/06/10 10:33:46;;;;;;;5.73;3.43;;;;;;;34.07;19.32;100236.94;126713;1088;102999;-82
2021/06/10 10:36:44;;;;;;;4.20;3.13;;;;;;;34.02;19.92;100228.60;126764;1090;103016;-81
2021/06/10 10:39:37;;;;;;;5.63;2.57;;;;;;;34.13;19.72;100224.48;126785;1090;102902;-81
2021/06/10 10:42:45;;;;;;;1.93;1.50;;;;;;;33.93;19.09;100225.25;126769;1090;102853;-81
2021/06/10 10:45:33;;;;;;;3.23;1.60;;;;;;;33.45;19.36;100227.03;126552;1089;114049;-82
2021/06/10 10:48:36;;;;;;;5.15;3.25;;;;;;;33.29;19.98;100221.89;126783;1089;101846;-82
2021/06/10 10:51:36;;;;;;;2.60;2.00;;;;;;;33.18;19.84;100219.72;126572;1089;114037;-81
2021/06/10 10:54:37;;;;;;;3.60;1.60;;;;;;;33.17;20.34;100218.05;126680;1090;103022;-81
2021/06/10 10:57:30;;;;;;;2.70;2.40;;;;;;;33.10;20.04;100209.08;126618;1090;114122;-81
2021/06/10 11:00:21;;;;;;;6.90;4.30;;;;;;;32.60;20.77;100221.70;126789;1089;102919;-81
2021/06/10 11:03:26;;;;;;;3.60;2.77;;;;;;;32.07;20.85;100215.69;126660;1090;114420;-82
2021/06/10 11:06:20;;;;;;;5.07;3.70;;;;;;;31.53;21.37;100221.38;126757;1090;101941;-81
2021/06/10 11:09:20;;;;;;;1.60;1.43;;;;;;;31.16;21.66;100217.69;126773;1088;113039;-82
2021/06/10 11:12:11;;;;;;;2.20;1.83;;;;;;;30.81;21.97;100221.03;126807;1090;102827;-82
2021/06/10 11:15:01;;;;;;;2.57;2.10;;;;;;;30.35;22.73;100218.31;126685;1090;114553;-80
2021/06/10 11:17:50;;;;;;;6.17;3.40;;;;;;;30.21;22.96;100221.75;126733;1088;102979;-83
2021/06/10 11:20:42;;;;;;;4.13;2.47;;;;;;;30.21;22.62;100216.38;126678;1090;114085;-81
2021/06/10 11:23:30;;;;;;;4.07;3.30;;;;;;;30.24;22.47;100206.09;126725;1089;103018;-81
2021/06/10 11:26:21;;;;;;;5.20;3.10;;;;;;;30.43;22.50;100204.80;126669;1090;114087;-82
2021/06/10 11:29:09;;;;;;;3.93;1.83;;;;;;;30.05;22.70;100212.76;126849;1089;101033;-82
2021/06/10 11:32:26;;;;;;;3.37;1.60;;;;;;;29.67;22.65;100205.50;126654;1090;114132;-82
2021/06/10 11:35:28;;;;;;;4.17;2.00;;;;;;;29.44;22.97;100203.53;126722;1088;102923;-81
2021/06/10 11:38:26;;;;;;;1.67;1.30;;;;;;;29.60;23.18;100191.06;126718;1090;113315;-81
2021/06/10 11:41:16;;;;;;;1.77;1.27;;;;;;;29.75;22.79;100189.33;126840;1090;103023;-82
2021/06/10 11:44:04;;;;;;;1.97;1.47;;;;;;;29.66;23.83;100190.39;126772;1090;114508;-81
2021/06/10 11:46:52;;;;;;;2.07;1.60;;;;;;;29.69;23.52;100187.34;126794;1089;102988;-81
2021/06/10 11:49:40;;;;;;;1.97;1.20;;;;;;;29.82;23.71;100181.42;126622;1090;113456;-82
2021/06/10 11:53:07;;;;;;;2.13;1.30;;;;;;;29.89;23.79;100177.01;126798;1089;102887;-81
2021/06/10 11:55:58;;;;;;;1.70;1.30;;;;;;;30.07;23.93;100181.14;126453;1092;114266;-82
2021/06/10 11:58:46;;;;;;;2.13;1.40;;;;;;;30.20;22.90;100172.50;126463;1092;102847;-82
2021/06/10 12:01:35;;;;;;;1.85;1.20;;;;;;;30.35;22.90;100170.72;126281;1092;113492;-82
2021/06/10 12:04:32;;;;;;;2.47;1.30;;;;;;;30.40;22.67;100161.27;126446;1092;102766;-82
2021/06/10 12:07:20;;;;;;;1.27;1.17;;;;;;;30.40;22.86;100164.80;126267;1092;113187;-83
2021/06/10 12:10:19;;;;;;;3.23;1.63;;;;;;;30.57;22.84;100152.88;126527;1093;102981;-82
2021/06/10 12:13:11;;;;;;;3.33;1.90;;;;;;;30.68;22.76;100155.16;126430;1092;102897;-82
2021/06/10 12:16:01;;;;;;;1.37;1.20;;;;;;;30.78;22.29;100156.77;126185;1093;113979;-82
2021/06/10 12:18:52;;;;;;;2.20;1.60;;;;;;;30.80;22.55;100152.04;126439;1092;102876;-82
2021/06/10 12:21:41;;;;;;;1.63;1.53;;;;;;;30.75;22.73;100149.91;126250;1093;114477;-82
2021/06/10 12:24:41;;;;;;;2.30;2.10;;;;;;;30.75;22.96;100146.38;126524;1093;102915;-82
2021/06/10 12:27:37;;;;;;;2.20;1.40;;;;;;;30.78;22.26;100143.31;126547;1091;113221;-82
2021/06/10 12:30:39;;;;;;;2.97;1.40;;;;;;;30.73;22.18;100137.65;126532;1093;102894;-81
2021/06/10 12:33:28;;;;;;;1.40;1.30;;;;;;;30.60;22.45;100125.60;126735;1090;114408;-81
2021/06/10 12:36:37;;;;;;;1.93;1.23;;;;;;;30.64;22.54;100128.80;126817;1090;104208;-82
2021/06/10 12:39:32;;;;;;;1.70;1.30;;;;;;;30.57;22.19;100131.35;126883;1090;114217;-82
2021/06/10 12:42:27;;;;;;;2.67;1.63;;;;;;;30.47;22.45;100122.67;126784;1089;101790;-82
2021/06/10 12:45:27;;;;;;;2.47;1.60;;;;;;;30.30;22.52;100124.66;126655;1090;114740;-82
2021/06/10 12:48:28;;;;;;;3.63;1.43;;;;;;;29.98;22.95;100124.84;126737;1090;102953;-82
2021/06/10 12:51:32;;;;;;;1.77;1.63;;;;;;;29.89;23.29;100116.00;126730;1090;113043;-81
2021/06/10 12:54:53;;;;;;;3.20;1.40;;;;;;;29.82;22.44;100119.59;126747;1090;102766;-81
2021/06/10 12:57:56;;;;;;;2.03;1.40;;;;;;;29.48;22.71;100118.91;126887;1090;113119;-81
2021/06/10 13:00:50;;;;;;;1.83;1.40;;;;;;;29.36;23.27;100114.88;126829;1089;103819;-81